»·PEaware :: SWA2144 KSMF-KSAN

SWA2144 :: KSMF-KSAN

FLIGHT INFORMATION

Flight Status: Arrived
Operator:
Southwest Airlines
More flights by this operator :: More flights under this callsign
Pilot: Dave P. (45)
Aircraft: BOEING 737-800
(B738)
More flights by this aircraft type
Origin: KSMF Sacramento Intl
United States
Destination: KSAN San Diego Intl-Lindbergh
United States
More flights between these airports :: More routes between these airports
Route: +PLYAA PLYAA1
File this flight plan on PilotEdge
Remarks:
Altitude:
(Current/Filed)
41,000ft
Speed:
(Current/Filed)
455kts
Departed: 01-Aug-20 08:44 AM
Arrived: 01-Aug-20 09:55 AM
Distance/Time
Traveled:
417nm/1:11
Distance/Time
To Go:
Arrived

Flight Plot

Page will automatically refresh every two minutes.


Map Options




Map Legend


Flown Route
Filed Route
Departure Airport
Arrival Airport
Navaid (VOR, NDB)
Fix

Horizontal Profiles

Position Reports

Time Latitude Longitude Heading Altitude Ground
Speed
01-Aug-20 08:15 38.696280 -121.594600 180 36ft 0kts
01-Aug-20 08:16 38.696280 -121.594600 180 36ft 0kts
01-Aug-20 08:17 38.696280 -121.594600 180 36ft 0kts
01-Aug-20 08:18 38.696280 -121.594600 180 36ft 0kts
01-Aug-20 08:19 38.696280 -121.594600 180 36ft 0kts
01-Aug-20 08:20 38.696280 -121.594600 180 36ft 0kts
01-Aug-20 08:21 38.696280 -121.594600 180 36ft 0kts
01-Aug-20 08:22 38.696280 -121.594600 180 36ft 0kts
01-Aug-20 08:23 38.696280 -121.594600 180 36ft 0kts
01-Aug-20 08:24 38.696280 -121.594600 180 36ft 0kts
01-Aug-20 08:25 38.696280 -121.594600 180 36ft 0kts
01-Aug-20 08:26 38.696280 -121.594600 180 36ft 0kts
01-Aug-20 08:27 38.696280 -121.594600 180 36ft 0kts
01-Aug-20 08:28 38.696280 -121.594600 180 36ft 0kts
01-Aug-20 08:29 38.696280 -121.594600 180 36ft 0kts
01-Aug-20 08:30 38.696280 -121.594600 180 36ft 0kts
01-Aug-20 08:31 38.696280 -121.594600 180 36ft 0kts
01-Aug-20 08:32 38.696280 -121.594600 180 36ft 0kts
01-Aug-20 08:33 38.696280 -121.594600 180 36ft 0kts
01-Aug-20 08:34 38.696711 -121.594599 180 36ft 2kts
01-Aug-20 08:35 38.697097 -121.594600 179 36ft 0kts
01-Aug-20 08:36 38.697097 -121.594600 179 36ft 0kts
01-Aug-20 08:37 38.697096 -121.594600 179 36ft 0kts
01-Aug-20 08:38 38.697093 -121.594600 179 36ft 0kts
01-Aug-20 08:39 38.697157 -121.598520 322 36ft 9kts
01-Aug-20 08:40 38.701566 -121.598591 0 36ft 19kts
01-Aug-20 08:41 38.706581 -121.598531 0 36ft 16kts
01-Aug-20 08:42 38.707146 -121.600869 243 36ft 8kts
01-Aug-20 08:43 38.691281 -121.601320 179 45ft 159kts
01-Aug-20 08:44 38.650960 -121.574385 122 2181ft 218kts
01-Aug-20 08:45 38.612136 -121.497951 122 4482ft 276kts
01-Aug-20 08:46 38.569272 -121.413647 123 7642ft 290kts
01-Aug-20 08:47 38.524254 -121.325311 123 10529ft 303kts
01-Aug-20 08:48 38.473331 -121.225628 124 11905ft 364kts
01-Aug-20 08:49 38.417281 -121.114735 124 14386ft 380kts
01-Aug-20 08:50 38.358350 -120.999432 124 16789ft 395kts
01-Aug-20 08:51 38.297018 -120.880047 124 18969ft 409kts
01-Aug-20 08:52 38.233486 -120.756750 124 20922ft 423kts
01-Aug-20 08:53 38.167974 -120.629721 124 22688ft 435kts
01-Aug-20 08:54 38.100022 -120.499423 124 24237ft 447kts
01-Aug-20 08:55 38.029757 -120.367370 126 25709ft 456kts
01-Aug-20 08:56 37.953798 -120.236999 133 27101ft 463kts
01-Aug-20 08:57 37.848414 -120.142976 151 28382ft 469kts
01-Aug-20 08:58 37.734390 -120.059405 151 29560ft 476kts
01-Aug-20 08:59 37.619668 -119.974346 150 30855ft 478kts
01-Aug-20 09:00 37.504932 -119.889277 151 32313ft 476kts
01-Aug-20 09:01 37.391152 -119.805429 152 33782ft 472kts
01-Aug-20 09:02 37.278255 -119.722303 152 35111ft 471kts
01-Aug-20 09:03 37.165349 -119.639870 153 36362ft 468kts
01-Aug-20 09:04 37.052757 -119.557674 155 37519ft 466kts
01-Aug-20 09:05 36.932793 -119.506144 171 38605ft 452kts
01-Aug-20 09:06 36.810608 -119.471195 172 39543ft 450kts
01-Aug-20 09:07 36.688701 -119.436398 172 40433ft 447kts
01-Aug-20 09:08 36.567309 -119.401653 172 41049ft 449kts
01-Aug-20 09:09 36.445478 -119.366948 172 41073ft 449kts
01-Aug-20 09:10 36.323593 -119.332382 172 41070ft 449kts
01-Aug-20 09:11 36.202016 -119.298017 172 41072ft 448kts
01-Aug-20 09:12 36.080677 -119.263826 172 41071ft 447kts
01-Aug-20 09:13 35.958779 -119.229590 172 41070ft 448kts
01-Aug-20 09:14 35.837306 -119.195564 172 41072ft 448kts
01-Aug-20 09:15 35.715688 -119.161507 171 41071ft 448kts
01-Aug-20 09:16 35.593938 -119.127658 171 41070ft 449kts
01-Aug-20 09:17 35.472851 -119.089833 163 41069ft 453kts
01-Aug-20 09:18 35.356808 -119.026223 159 41071ft 456kts
01-Aug-20 09:19 35.241462 -118.962031 159 41087ft 456kts
01-Aug-20 09:20 35.126090 -118.897858 159 41119ft 456kts
01-Aug-20 09:21 35.010251 -118.833630 159 41147ft 456kts
01-Aug-20 09:22 34.894827 -118.769937 159 41152ft 456kts
01-Aug-20 09:23 34.778984 -118.706053 159 41135ft 456kts
01-Aug-20 09:24 34.663217 -118.642684 159 41089ft 457kts
01-Aug-20 09:25 34.548848 -118.574321 152 41047ft 460kts
01-Aug-20 09:26 34.438784 -118.495002 152 41033ft 460kts
01-Aug-20 09:27 34.332274 -118.419327 152 39319ft 463kts
01-Aug-20 09:28 34.220838 -118.340056 151 36724ft 465kts
01-Aug-20 09:29 34.108642 -118.260569 151 33869ft 469kts
01-Aug-20 09:30 34.000203 -118.184117 151 31281ft 464kts
01-Aug-20 09:31 33.894165 -118.109757 151 29167ft 451kts
01-Aug-20 09:32 33.786810 -118.036419 153 27067ft 437kts
01-Aug-20 09:33 33.681613 -117.967122 153 24992ft 425kts
01-Aug-20 09:34 33.577255 -117.906783 174 22945ft 407kts
01-Aug-20 09:35 33.467172 -117.907144 182 21218ft 388kts
01-Aug-20 09:36 33.360911 -117.908894 174 19382ft 376kts
01-Aug-20 09:37 33.264205 -117.868780 157 17261ft 364kts
01-Aug-20 09:38 33.169845 -117.842708 199 14708ft 346kts
01-Aug-20 09:39 33.119709 -117.928947 273 12806ft 322kts
01-Aug-20 09:40 33.182001 -117.984951 8 11691ft 318kts
01-Aug-20 09:41 33.221509 -117.906843 114 11020ft 309kts
01-Aug-20 09:42 33.161519 -117.832671 138 11019ft 318kts
01-Aug-20 09:43 33.101737 -117.765110 139 10840ft 273kts
01-Aug-20 09:45 33.048095 -117.705950 139 9768ft 259kts
01-Aug-20 09:46 32.992768 -117.649823 142 8407ft 261kts
01-Aug-20 09:47 32.937176 -117.595831 142 7180ft 253kts
01-Aug-20 09:48 32.882612 -117.543485 142 5647ft 248kts
01-Aug-20 09:49 32.836226 -117.492488 132 4555ft 219kts
01-Aug-20 09:50 32.795679 -117.440590 129 3141ft 206kts
01-Aug-20 09:51 32.779519 -117.380162 103 3025ft 195kts
01-Aug-20 09:52 32.764791 -117.318573 105 2154ft 181kts
01-Aug-20 09:53 32.751458 -117.263532 104 1180ft 163kts
01-Aug-20 09:54 32.739896 -117.215809 108 323ft 146kts
01-Aug-20 09:55 32.731536 -117.181584 124 23ft 16kts
01-Aug-20 09:56 32.731038 -117.183501 286 23ft 9kts
01-Aug-20 09:57 32.732292 -117.188716 285 23ft 17kts
01-Aug-20 09:58 32.733169 -117.194263 213 23ft 10kts
01-Aug-20 09:59 32.732321 -117.195941 306 23ft 0kts
01-Aug-20 10:00 32.732321 -117.195941 306 23ft 0kts
01-Aug-20 10:01 32.732321 -117.195941 306 23ft 0kts
01-Aug-20 10:01 32.732321 -117.195941 306 23ft 0kts
01-Aug-20 10:03 32.732321 -117.195941 306 23ft 0kts
01-Aug-20 10:04 32.732321 -117.195941 306 23ft 0kts
01-Aug-20 10:04 32.732321 -117.195941 306 23ft 0kts
01-Aug-20 10:05 32.732321 -117.195941 306 23ft 0kts
01-Aug-20 10:07 32.732321 -117.195941 306 23ft 0kts
01-Aug-20 10:07 32.732321 -117.195941 306 23ft 0kts
01-Aug-20 10:08 32.732321 -117.195941 306 23ft 0kts

Navigation Log

Ident Type
Flight plan parsing failed, navigation log unavailable